Time;durP1;ratioP1;P1;durP2;ratioP2;P2;SDS_P1;SDS_P2;PMS_P1;PMS_P2;Temp;Humidity;BMP_temperature;BMP_pressure;BME280_temperature;BME280_humidity;BME280_pressure;Samples;Min_cycle;Max_cycle;Signal;HPM_P1;HPM_P2
2023/04/01 00:00:48;;;;;;;;;;;;;;;-0.71;100.00;100391.66;5154249;27;19911;-65
2023/04/01 00:03:13;;;;;;;;;;;;;;;-0.72;100.00;100396.06;5153963;27;19911;-65
2023/04/01 00:05:38;;;;;;;;;;;;;;;-0.70;100.00;100388.94;5154166;27;19911;-65
2023/04/01 00:08:04;;;;;;;;;;;;;;;-0.69;100.00;100397.63;5153915;27;19911;-66
2023/04/01 00:10:29;;;;;;;;;;;;;;;-0.65;100.00;100392.09;5153795;27;19919;-64
2023/04/01 00:12:55;;;;;;;;;;;;;;;-0.66;100.00;100394.81;5135321;27;19911;-64
2023/04/01 00:15:20;;;;;;;;;;;;;;;-0.61;100.00;100397.97;5154166;27;19934;-66
2023/04/01 00:17:45;;;;;;;;;;;;;;;-0.61;100.00;100392.72;5154487;27;20014;-66
2023/04/01 00:20:12;;;;;;;;;;;;;;;-0.63;100.00;100397.22;5154663;27;19911;-65
2023/04/01 00:22:37;;;;;;;;;;;;;;;-0.65;100.00;100401.72;5154391;27;20366;-65
2023/04/01 00:25:04;;;;;;;;;;;;;;;-0.64;100.00;100392.94;5154371;27;20020;-65
2023/04/01 00:27:29;;;;;;;;;;;;;;;-0.55;100.00;100392.34;5154330;27;19915;-65
2023/04/01 00:29:55;;;;;;;;;;;;;;;-0.56;100.00;100388.06;5154260;27;19941;-66
2023/04/01 00:32:20;;;;;;;;;;;;;;;-0.58;100.00;100392.53;5154205;27;20364;-66
2023/04/01 00:34:45;;;;;;;;;;;;;;;-0.60;100.00;100391.78;5153830;27;20059;-65
2023/04/01 00:37:11;;;;;;;;;;;;;;;-0.60;100.00;100389.19;5153827;27;19963;-66
2023/04/01 00:39:36;;;;;;;;;;;;;;;-0.60;100.00;100389.19;5153797;27;19954;-66
2023/04/01 00:42:02;;;;;;;;;;;;;;;-0.59;100.00;100390.84;5154002;27;19915;-65
2023/04/01 00:44:29;;;;;;;;;;;;;;;-0.58;100.00;100394.31;5153714;27;19911;-65
2023/04/01 00:46:55;;;;;;;;;;;;;;;-0.61;100.00;100395.34;5153583;27;19983;-67
2023/04/01 00:49:23;;;;;;;;;;;;;;;-0.65;100.00;100397.31;5153397;27;19954;-65
2023/04/01 00:51:51;;;;;;;;;;;;;;;-0.71;100.00;100392.50;5153859;27;20010;-65
2023/04/01 00:54:19;;;;;;;;;;;;;;;-0.79;100.00;100394.78;5153673;27;19915;-66
2023/04/01 00:57:01;;;;;;;;;;;;;;;-0.84;100.00;100391.63;5153726;27;19934;-65
2023/04/01 00:59:31;;;;;;;;;;;;;;;-0.85;100.00;100391.75;5153666;27;19934;-65
2023/04/01 01:01:56;;;;;;;;;;;;;;;-0.85;100.00;100381.28;5153866;27;19910;-65
2023/04/01 01:04:25;;;;;;;;;;;;;;;-0.82;100.00;100388.91;5153644;27;19911;-64
2023/04/01 01:06:50;;;;;;;;;;;;;;;-0.90;100.00;100378.09;5153468;27;20307;-66
2023/04/01 01:09:15;;;;;;;;;;;;;;;-0.91;100.00;100379.03;5155291;27;19922;-65
2023/04/01 01:11:41;;;;;;;;;;;;;;;-0.94;100.00;100380.91;5157406;27;19915;-64
2023/04/01 01:14:15;;;;;;;;;;;;;;;-0.94;100.00;100386.13;5157366;27;19919;-66
2023/04/01 01:16:45;;;;;;;;;;;;;;;-0.96;100.00;100382.78;5139310;27;19911;-64
2023/04/01 01:19:23;;;;;;;;;;;;;;;-0.95;100.00;100384.47;5157866;27;19999;-65
2023/04/01 01:22:03;;;;;;;;;;;;;;;-0.93;100.00;100382.59;5158403;27;20014;-65
2023/04/01 01:24:40;;;;;;;;;;;;;;;-0.93;100.00;100387.81;5158636;27;19911;-64
2023/04/01 01:27:13;;;;;;;;;;;;;;;-0.87;100.00;100381.34;5158114;27;19958;-65
2023/04/01 01:29:42;;;;;;;;;;;;;;;-0.85;100.00;100383.91;5157717;27;19918;-66
2023/04/01 01:32:10;;;;;;;;;;;;;;;-0.84;100.00;100380.34;5157373;27;19914;-64
2023/04/01 01:34:55;;;;;;;;;;;;;;;-0.88;100.00;100381.44;5156972;27;19949;-65
2023/04/01 01:37:23;;;;;;;;;;;;;;;-0.84;100.00;100380.34;5156991;27;19918;-65
2023/04/01 01:39:50;;;;;;;;;;;;;;;-0.81;100.00;100380.97;5156574;27;19922;-65
2023/04/01 01:42:17;;;;;;;;;;;;;;;-0.87;100.00;100390.97;5156410;27;20417;-64
2023/04/01 01:44:44;;;;;;;;;;;;;;;-0.87;100.00;100386.56;5156264;27;20282;-64
2023/04/01 01:47:09;;;;;;;;;;;;;;;-0.88;100.00;100390.13;5137600;27;20319;-65
2023/04/01 01:49:36;;;;;;;;;;;;;;;-0.88;100.00;100394.53;5156069;27;20060;-65
2023/04/01 01:52:01;;;;;;;;;;;;;;;-0.86;100.00;100384.84;5156280;27;19911;-64
2023/04/01 01:54:26;;;;;;;;;;;;;;;-0.88;100.00;100387.50;5156195;27;19996;-66
2023/04/01 01:56:59;;;;;;;;;;;;;;;-0.92;100.00;100388.66;5155828;27;19918;-65
2023/04/01 01:59:26;;;;;;;;;;;;;;;-0.89;100.00;100392.84;5137330;27;19910;-67
2023/04/01 02:01:53;;;;;;;;;;;;;;;-0.84;100.00;100390.81;5155798;27;19956;-65
2023/04/01 02:04:19;;;;;;;;;;;;;;;-0.83;100.00;100382.00;5156407;27;20328;-66
2023/04/01 02:06:58;;;;;;;;;;;;;;;-0.85;100.00;100386.50;5156291;27;19911;-65
2023/04/01 02:09:23;;;;;;;;;;;;;;;-0.90;100.00;100378.09;5137893;27;19911;-65
2023/04/01 02:11:54;;;;;;;;;;;;;;;-0.89;100.00;100382.38;5156521;27;20247;-65
2023/04/01 02:14:25;;;;;;;;;;;;;;;-0.87;100.00;100380.50;5156299;27;20009;-65
2023/04/01 02:16:56;;;;;;;;;;;;;;;-0.93;100.00;100377.34;5156369;27;19911;-67
2023/04/01 02:19:26;;;;;;;;;;;;;;;-0.89;100.00;100374.53;5156239;27;19911;-66
2023/04/01 02:21:53;;;;;;;;;;;;;;;-0.87;100.00;100380.50;5155117;27;19910;-65
2023/04/01 02:24:22;;;;;;;;;;;;;;;-0.87;100.00;100383.13;5155984;27;20013;-65
2023/04/01 02:26:48;;;;;;;;;;;;;;;-0.85;100.00;100384.72;5155986;27;19911;-66
2023/04/01 02:29:14;;;;;;;;;;;;;;;-0.87;100.00;100377.91;5156134;27;19922;-65
2023/04/01 02:31:40;;;;;;;;;;;;;;;-0.86;100.00;100388.28;5156105;27;19911;-66
2023/04/01 02:34:05;;;;;;;;;;;;;;;-0.88;100.00;100384.06;5155699;27;19918;-66
2023/04/01 02:36:32;;;;;;;;;;;;;;;-0.89;100.00;100379.78;5155932;27;19911;-65
2023/04/01 02:39:01;;;;;;;;;;;;;;;-0.89;100.00;100377.16;5155628;27;20357;-65
2023/04/01 02:41:27;;;;;;;;;;;;;;;-0.87;100.00;100380.50;5155963;27;20013;-65
2023/04/01 02:43:52;;;;;;;;;;;;;;;-0.90;100.00;100376.31;5155827;27;20008;-64
2023/04/01 02:46:18;;;;;;;;;;;;;;;-0.90;100.00;100380.72;5156055;27;19918;-65
2023/04/01 02:48:43;;;;;;;;;;;;;;;-0.91;100.00;100379.03;5137172;27;19911;-66
2023/04/01 02:51:08;;;;;;;;;;;;;;;-0.95;100.00;100387.09;5155621;27;19911;-66
2023/04/01 02:53:34;;;;;;;;;;;;;;;-1.02;100.00;100388.41;5155338;27;19958;-66
2023/04/01 02:55:59;;;;;;;;;;;;;;;-1.07;100.00;100387.88;5155576;27;20344;-66
2023/04/01 02:58:25;;;;;;;;;;;;;;;-1.12;100.00;100379.50;5155433;27;19915;-66
2023/04/01 03:00:50;;;;;;;;;;;;;;;-1.11;100.00;100380.34;5155245;27;19915;-67
2023/04/01 03:03:15;;;;;;;;;;;;;;;-1.18;100.00;100372.03;5155469;27;19915;-65
2023/04/01 03:05:41;;;;;;;;;;;;;;;-1.10;100.00;100389.84;5155390;27;19911;-66
2023/04/01 03:08:06;;;;;;;;;;;;;;;-1.07;100.00;100385.25;5155356;27;19936;-65
2023/04/01 03:10:31;;;;;;;;;;;;;;;-1.07;100.00;100385.25;5155061;27;19918;-66
2023/04/01 03:12:57;;;;;;;;;;;;;;;-1.06;100.00;100392.16;5154892;27;19915;-66
2023/04/01 03:15:22;;;;;;;;;;;;;;;-1.11;100.00;100390.78;5155750;27;19923;-66
2023/04/01 03:17:47;;;;;;;;;;;;;;;-1.21;100.00;100392.28;5156198;27;19911;-65
2023/04/01 03:20:13;;;;;;;;;;;;;;;-1.23;100.00;100391.53;5154935;27;19963;-65
2023/04/01 03:22:39;;;;;;;;;;;;;;;-1.26;100.00;100389.97;5154844;27;19918;-65
2023/04/01 03:25:05;;;;;;;;;;;;;;;-1.25;100.00;100402.09;5154760;27;19911;-64
2023/04/01 03:27:30;;;;;;;;;;;;;;;-1.26;100.00;100403.03;5154803;27;19911;-63
2023/04/01 03:29:55;;;;;;;;;;;;;;;-1.23;100.00;100400.22;5154675;27;19922;-65
2023/04/01 03:32:21;;;;;;;;;;;;;;;-1.17;100.00;100404.22;5136255;27;19911;-64
2023/04/01 03:34:46;;;;;;;;;;;;;;;-1.13;100.00;100397.88;5154604;27;19915;-65
2023/04/01 03:37:11;;;;;;;;;;;;;;;-1.17;100.00;100401.59;5136130;27;19911;-65
2023/04/01 03:39:37;;;;;;;;;;;;;;;-1.13;100.00;100396.09;5154453;27;19963;-67
2023/04/01 03:42:02;;;;;;;;;;;;;;;-1.09;100.00;100408.03;5154721;27;19922;-65
2023/04/01 03:44:32;;;;;;;;;;;;;;;-1.04;100.00;100399.91;5154720;27;19911;-61
2023/04/01 03:46:57;;;;;;;;;;;;;;;-1.07;100.00;100411.41;5154583;27;19947;-64
2023/04/01 03:49:22;;;;;;;;;;;;;;;-1.13;100.00;100409.19;5154422;27;19956;-65
2023/04/01 03:51:47;;;;;;;;;;;;;;;-1.10;100.00;100408.97;5154384;27;19933;-65
2023/04/01 03:54:13;;;;;;;;;;;;;;;-1.07;100.00;100416.63;5154352;27;19918;-66
2023/04/01 03:56:38;;;;;;;;;;;;;;;-1.03;100.00;100415.50;5154321;27;19923;-66
2023/04/01 03:59:05;;;;;;;;;;;;;;;-1.06;100.00;100420.91;5154497;27;20010;-67
2023/04/01 04:01:30;;;;;;;;;;;;;;;-1.06;100.00;100410.47;5154396;27;19961;-65
2023/04/01 04:03:56;;;;;;;;;;;;;;;-1.02;100.00;100416.31;5154289;27;19954;-65
2023/04/01 04:06:21;;;;;;;;;;;;;;;-1.00;100.00;100414.44;5154300;27;19955;-64
2023/04/01 04:08:47;;;;;;;;;;;;;;;-0.98;100.00;100410.81;5154269;27;19955;-65
2023/04/01 04:11:12;;;;;;;;;;;;;;;-0.99;100.00;100418.75;5154246;27;20363;-66
2023/04/01 04:13:38;;;;;;;;;;;;;;;-0.96;100.00;100414.16;5154359;27;19924;-66
2023/04/01 04:16:03;;;;;;;;;;;;;;;-0.96;100.00;100414.16;5154478;27;19912;-66
2023/04/01 04:18:29;;;;;;;;;;;;;;;-1.02;100.00;100417.16;5154242;27;19915;-65
2023/04/01 04:20:54;;;;;;;;;;;;;;;-0.99;100.00;100411.75;5154209;27;19918;-65
2023/04/01 04:23:19;;;;;;;;;;;;;;;-0.99;100.00;100409.13;5154003;27;19918;-64
2023/04/01 04:25:54;;;;;;;;;;;;;;;-1.04;100.00;100411.19;5153893;27;19912;-67
2023/04/01 04:28:19;;;;;;;;;;;;;;;-1.01;100.00;100410.16;5135525;27;19917;-65
2023/04/01 04:30:45;;;;;;;;;;;;;;;-1.01;100.00;100416.22;5153806;27;19911;-66
2023/04/01 04:33:10;;;;;;;;;;;;;;;-0.99;100.00;100408.28;5153855;27;20014;-66
2023/04/01 04:35:36;;;;;;;;;;;;;;;-0.93;100.00;100416.56;5154051;27;19915;-65
2023/04/01 04:38:01;;;;;;;;;;;;;;;-0.97;100.00;100407.25;5153839;27;19915;-65
2023/04/01 04:40:26;;;;;;;;;;;;;;;-0.90;100.00;100414.69;5153757;27;19921;-66
2023/04/01 04:42:52;;;;;;;;;;;;;;;-0.85;100.00;100420.50;5154254;27;19958;-64
2023/04/01 04:45:18;;;;;;;;;;;;;;;-0.87;100.00;100417.13;5157644;27;19951;-66
2023/04/01 04:47:43;;;;;;;;;;;;;;;-0.89;100.00;100408.53;5139648;27;20315;-66
2023/04/01 04:50:08;;;;;;;;;;;;;;;-0.84;100.00;100416.94;5157829;27;20006;-65
2023/04/01 04:52:34;;;;;;;;;;;;;;;-0.78;100.00;100424.38;5139432;27;20259;-65
2023/04/01 04:54:59;;;;;;;;;;;;;;;-0.75;100.00;100416.34;5139024;27;20412;-66
2023/04/01 04:57:25;;;;;;;;;;;;;;;-0.69;100.00;100423.78;5157678;27;20378;-71
2023/04/01 04:59:50;;;;;;;;;;;;;;;-0.66;100.00;100423.59;5157756;27;19934;-65
2023/04/01 05:02:15;;;;;;;;;;;;;;;-0.70;100.00;100420.34;5157833;27;20074;-64
2023/04/01 05:04:40;;;;;;;;;;;;;;;-0.69;100.00;100421.16;5157567;27;20005;-66
2023/04/01 05:07:06;;;;;;;;;;;;;;;-0.62;100.00;100422.44;5139007;27;19960;-66
2023/04/01 05:09:31;;;;;;;;;;;;;;;-0.49;100.00;100423.34;5157434;27;19919;-66
2023/04/01 05:11:57;;;;;;;;;;;;;;;-0.44;100.00;100426.47;5139056;27;20281;-65
2023/04/01 05:14:23;;;;;;;;;;;;;;;-0.38;100.00;100426.06;5157326;27;19922;-66
2023/04/01 05:16:50;;;;;;;;;;;;;;;-0.39;100.00;100434.88;5157500;27;20001;-65
2023/04/01 05:19:15;;;;;;;;;;;;;;;-0.34;100.00;100431.94;5157448;27;20385;-65
2023/04/01 05:21:41;;;;;;;;;;;;;;;-0.26;100.00;100431.47;5156954;27;19911;-66
2023/04/01 05:24:09;;;;;;;;;;;;;;;-0.33;100.00;100444.09;5157200;27;19923;-66
2023/04/01 05:26:36;;;;;;;;;;;;;;;-0.23;100.00;100439.09;5157185;27;20394;-66
2023/04/01 05:29:02;;;;;;;;;;;;;;;-0.17;100.00;100436.91;5157396;27;20001;-66
2023/04/01 05:31:28;;;;;;;;;;;;;;;-0.20;100.00;100441.50;5156962;27;19911;-66
2023/04/01 05:33:53;;;;;;;;;;;;;;;-0.24;100.00;100438.25;5156711;27;19922;-65
2023/04/01 05:36:19;;;;;;;;;;;;;;;-0.21;100.00;100442.44;5156828;27;19911;-67
2023/04/01 05:38:46;;;;;;;;;;;;;;;-0.17;100.00;100438.69;5156754;27;20382;-65
2023/04/01 05:41:11;;;;;;;;;;;;;;;-0.08;100.00;100438.91;5156938;27;19915;-66
2023/04/01 05:43:37;;;;;;;;;;;;;;;0.03;100.00;100435.59;5156829;27;20388;-65
2023/04/01 05:46:02;;;;;;;;;;;;;;;0.07;100.00;100442.28;5156740;27;19917;-66
2023/04/01 05:48:28;;;;;;;;;;;;;;;0.16;100.00;100444.28;5156668;27;19911;-66
2023/04/01 05:50:53;;;;;;;;;;;;;;;0.13;100.00;100447.09;5138002;27;20362;-66
2023/04/01 05:53:19;;;;;;;;;;;;;;;0.02;100.00;100443.53;5156318;27;20415;-65
2023/04/01 05:55:45;;;;;;;;;;;;;;;-0.02;100.00;100442.88;5156396;27;19946;-66
2023/04/01 05:58:10;;;;;;;;;;;;;;;-0.06;100.00;100444.03;5156732;27;19934;-67
2023/04/01 06:00:35;;;;;;;;;;;;;;;-0.08;100.00;100446.75;5156547;27;19975;-65
2023/04/01 06:03:01;;;;;;;;;;;;;;;0.00;100.00;100451.50;5156605;27;19918;-65
2023/04/01 06:05:30;;;;;;;;;;;;;;;0.08;100.00;100449.19;5156565;27;20005;-64
2023/04/01 06:07:58;;;;;;;;;;;;;;;0.06;100.00;100445.84;5156266;27;19911;-65
2023/04/01 06:10:32;;;;;;;;;;;;;;;0.09;100.00;100444.81;5144919;27;19956;-64
2023/04/01 06:13:00;;;;;;;;;;;;;;;0.03;100.00;100442.59;5144475;27;19915;-63
2023/04/01 06:15:29;;;;;;;;;;;;;;;-0.02;100.00;100451.56;5139249;27;19922;-67
2023/04/01 06:18:13;;;;;;;;;;;;;;;0.01;100.00;100447.94;5125955;27;20339;-64
2023/04/01 06:20:41;;;;;;;;;;;;;;;0.11;100.00;100449.00;5145531;27;20359;-63
2023/04/01 06:23:32;;;;;;;;;;;;;;;0.22;100.00;100449.09;5141773;27;19922;-65
2023/04/01 06:26:05;;;;;;;;;;;;;;;0.26;100.00;100458.41;5116525;27;19958;-65
2023/04/01 06:28:33;;;;;;;;;;;;;;;0.31;100.00;100455.50;5145590;27;19911;-63
2023/04/01 06:31:19;;;;;;;;;;;;;;;0.43;100.00;100464.28;5144103;27;19918;-70
2023/04/01 06:33:44;;;;;;;;;;;;;;;0.45;100.00;100458.00;5129902;27;19918;-64
2023/04/01 06:36:34;;;;;;;;;;;;;;;0.48;100.00;100463.03;5144577;27;19911;-66
2023/04/01 06:39:02;;;;;;;;;;;;;;;0.55;100.00;100458.19;5142346;27;19963;-67
2023/04/01 06:41:42;;;;;;;;;;;;;;;0.61;100.00;100463.03;5147287;27;20378;-69
2023/04/01 06:44:08;;;;;;;;;;;;;;;0.59;100.00;100459.69;5137916;27;19993;-64
2023/04/01 06:46:36;;;;;;;;;;;;;;;0.73;100.00;100456.94;5134801;27;20397;-65
2023/04/01 06:49:08;;;;;;;;;;;;;;;0.81;100.00;100459.84;5134903;27;20282;-65
2023/04/01 06:51:52;;;;;;;;;;;;;;;0.83;100.00;100462.34;5147736;27;19964;-66
2023/04/01 06:54:20;;;;;;;;;;;;;;;0.78;100.00;100467.94;5145560;27;19944;-66
2023/04/01 06:56:46;;;;;;;;;;;;;;;0.70;100.00;100462.38;5133757;27;20268;-64
2023/04/01 06:59:24;;;;;;;;;;;;;;;0.45;100.00;100472.88;5132054;27;20381;-65
2023/04/01 07:02:13;;;;;;;;;;;;;;;0.37;100.00;100470.78;5136071;27;20107;-65
2023/04/01 07:04:50;;;;;;;;;;;;;;;0.44;100.00;100472.03;5133460;27;19911;-64
2023/04/01 07:07:26;;;;;;;;;;;;;;;0.38;100.00;100476.88;5143200;27;19933;-64
2023/04/01 07:09:55;;;;;;;;;;;;;;;0.32;100.00;100472.91;5137842;27;19983;-64
2023/04/01 07:12:23;;;;;;;;;;;;;;;0.36;100.00;100473.53;5124183;27;19918;-66
2023/04/01 07:14:50;;;;;;;;;;;;;;;0.30;100.00;100475.63;5142650;27;19919;-64
2023/04/01 07:17:17;;;;;;;;;;;;;;;0.36;100.00;100476.13;5139686;27;20308;-65
2023/04/01 07:19:50;;;;;;;;;;;;;;;0.46;100.00;100474.56;5134956;27;20373;-64
2023/04/01 07:22:15;;;;;;;;;;;;;;;0.56;100.00;100484.28;5134280;27;20367;-65
2023/04/01 07:24:42;;;;;;;;;;;;;;;0.63;100.00;100487.34;5143539;27;19917;-67
2023/04/01 07:27:12;;;;;;;;;;;;;;;0.58;100.00;100495.53;5149137;27;19955;-73
2023/04/01 07:29:38;;;;;;;;;;;;;;;0.58;100.00;100492.91;5134323;27;19964;-67
2023/04/01 07:32:27;;;;;;;;;;;;;;;0.70;100.00;100493.84;5134057;27;19912;-66
2023/04/01 07:35:04;;;;;;;;;;;;;;;0.61;100.00;100497.09;5141962;27;20259;-66
2023/04/01 07:37:41;;;;;;;;;;;;;;;0.58;100.00;100500.78;5153728;27;20577;-67
2023/04/01 07:40:10;;;;;;;;;;;;;;;0.42;100.00;100499.28;5153572;27;20366;-65
2023/04/01 07:42:55;;;;;;;;;;;;;;;0.32;100.00;100493.84;5133502;27;19958;-65
2023/04/01 07:45:33;;;;;;;;;;;;;;;0.27;100.00;100501.16;5119454;27;19973;-67
2023/04/01 07:48:12;;;;;;;;;;;;;;;0.16;100.00;100508.91;5142154;27;20312;-68
2023/04/01 07:51:01;;;;;;;;;;;;;;;0.02;100.00;100506.38;5135617;27;19915;-69
2023/04/01 07:53:34;;;;;;;;;;;;;;;-0.08;100.00;100508.75;5104299;27;20362;-70
2023/04/01 07:56:08;;;;;;;;;;;;;;;-0.15;100.00;100516.16;5131274;27;19911;-70
2023/04/01 07:58:34;;;;;;;;;;;;;;;-0.24;100.00;100511.53;5141830;27;20044;-69
2023/04/01 08:01:10;;;;;;;;;;;;;;;-0.24;100.00;100518.56;5126206;27;20396;-70
2023/04/01 08:03:47;;;;;;;;;;;;;;;-0.05;100.00;100519.00;5142690;27;19964;-68
2023/04/01 08:06:22;;;;;;;;;;;;;;;0.12;100.00;100521.38;5139135;27;19918;-66
2023/04/01 08:08:55;;;;;;;;;;;;;;;0.08;100.00;100514.66;5141053;27;19918;-71
2023/04/01 08:11:36;;;;;;;;;;;;;;;0.07;100.00;100525.25;5144649;27;20018;-69
2023/04/01 08:14:02;;;;;;;;;;;;;;;0.11;100.00;100530.16;5143532;27;19922;-69
2023/04/01 08:16:53;;;;;;;;;;;;;;;0.16;100.00;100525.44;5123527;27;19915;-67
2023/04/01 08:19:21;;;;;;;;;;;;;;;0.00;100.00;100522.19;5107725;27;19915;-68
2023/04/01 08:21:57;;;;;;;;;;;;;;;0.07;100.00;100530.47;5144969;27;19922;-68
2023/04/01 08:24:41;;;;;;;;;;;;;;;0.13;100.00;100530.06;5123565;27;19911;-68
2023/04/01 08:27:11;;;;;;;;;;;;;;;0.13;100.00;100530.06;5147779;27;20306;-71
2023/04/01 08:29:44;;;;;;;;;;;;;;;0.15;100.00;100536.03;5154104;27;19915;-68
2023/04/01 08:32:15;;;;;;;;;;;;;;;0.11;100.00;100539.81;5153931;27;19922;-71
2023/04/01 08:34:46;;;;;;;;;;;;;;;0.26;100.00;100536.97;5153511;27;19911;-67
2023/04/01 08:37:25;;;;;;;;;;;;;;;0.41;100.00;100531.69;5153658;27;19915;-69
2023/04/01 08:39:54;;;;;;;;;;;;;;;0.49;100.00;100534.59;5134757;27;20243;-67
2023/04/01 08:42:20;;;;;;;;;;;;;;;0.63;100.00;100538.94;5151171;27;19967;-67
2023/04/01 08:45:00;;;;;;;;;;;;;;;0.65;100.00;100535.25;5114580;28;19915;-69
2023/04/01 08:47:43;;;;;;;;;;;;;;;0.57;100.00;100545.41;5133143;28;19911;-69
2023/04/01 08:50:27;;;;;;;;;;;;;;;0.55;100.00;100539.44;5114647;28;20285;-69
2023/04/01 08:53:11;;;;;;;;;;;;;;;0.65;100.00;100543.13;5132982;28;20365;-69
2023/04/01 08:55:55;;;;;;;;;;;;;;;0.76;100.00;100548.47;5132847;28;20393;-69
2023/04/01 08:58:35;;;;;;;;;;;;;;;0.86;100.00;100546.88;5133023;28;19919;-69
2023/04/01 09:01:19;;;;;;;;;;;;;;;0.88;100.00;100554.66;5132937;28;19911;-68
2023/04/01 09:03:55;;;;;;;;;;;;;;;0.89;100.00;100557.19;5133044;28;19950;-68
2023/04/01 09:06:36;;;;;;;;;;;;;;;0.98;100.00;100560.09;5133777;28;19971;-69
2023/04/01 09:09:20;;;;;;;;;;;;;;;0.90;100.00;100565.88;5132799;28;19911;-70
2023/04/01 09:12:04;;;;;;;;;;;;;;;0.88;100.00;100558.13;5132956;28;19911;-70
2023/04/01 09:14:48;;;;;;;;;;;;;;;0.88;100.00;100560.75;5132829;28;19974;-67
2023/04/01 09:17:32;;;;;;;;;;;;;;;0.84;100.00;100559.25;5136285;27;19911;-68
2023/04/01 09:20:15;;;;;;;;;;;;;;;0.84;100.00;100566.28;5153397;27;19919;-69
2023/04/01 09:22:47;;;;;;;;;;;;;;;0.99;100.00;100567.84;5153393;27;20375;-70
2023/04/01 09:25:19;;;;;;;;;;;;;;;1.21;100.00;100567.22;5134930;27;19918;-69
2023/04/01 09:27:45;;;;;;;;;;;;;;;1.17;100.00;100568.38;5128772;27;20382;-68
2023/04/01 09:30:13;;;;;;;;;;;;;;;1.28;100.00;100576.31;5133528;27;19922;-69
2023/04/01 09:32:53;;;;;;;;;;;;;;;1.43;100.00;100575.22;5136660;27;19918;-69
2023/04/01 09:35:45;;;;;;;;;;;;;;;1.58;100.00;100569.84;5136394;27;19980;-69
2023/04/01 09:38:16;;;;;;;;;;;;;;;1.60;100.00;100573.19;5094531;27;20320;-68
2023/04/01 09:40:50;;;;;;;;;;;;;;;1.37;100.00;100573.03;5136620;27;20359;-70
2023/04/01 09:43:21;;;;;;;;;;;;;;;1.46;100.00;100575.03;5137909;27;19998;-69
2023/04/01 09:45:53;;;;;;;;;;;;;;;1.45;100.00;100575.97;5137284;27;19953;-69
2023/04/01 09:48:24;;;;;;;;;;;;;;;1.65;100.00;100578.94;5119500;27;20363;-69
2023/04/01 09:51:08;;;;;;;;;;;;;;;1.79;100.00;100566.53;5136763;27;19987;-69
2023/04/01 09:53:47;;;;;;;;;;;;;;;1.86;100.00;100575.63;5127722;27;20388;-68
2023/04/01 09:56:15;;;;;;;;;;;;;;;1.94;100.00;100571.59;5115268;28;19957;-70
2023/04/01 09:58:59;;;;;;;;;;;;;;;1.92;100.00;100579.59;5115674;28;19947;-67
2023/04/01 10:01:27;;;;;;;;;;;;;;;1.82;100.00;100578.59;5115124;28;20024;-69
2023/04/01 10:04:22;;;;;;;;;;;;;;;1.63;100.00;100580.84;5114045;28;20830;-66
2023/04/01 10:06:47;;;;;;;;;;;;;;;1.57;100.00;100579.50;5105616;28;20458;-68
2023/04/01 10:09:15;;;;;;;;;;;;;;;1.74;100.00;100580.94;5096602;28;19912;-69
2023/04/01 10:11:59;;;;;;;;;;;;;;;1.80;100.00;100591.00;5115011;28;19935;-67
2023/04/01 10:14:37;;;;;;;;;;;;;;;1.89;99.67;100602.59;5114111;28;19918;-67
2023/04/01 10:17:08;;;;;;;;;;;;;;;1.77;99.04;100597.31;5114645;28;19911;-68
2023/04/01 10:19:51;;;;;;;;;;;;;;;1.75;99.67;100593.13;5114756;28;20002;-66
2023/04/01 10:22:21;;;;;;;;;;;;;;;1.54;99.96;100591.06;5095950;28;19974;-75
2023/04/01 10:24:50;;;;;;;;;;;;;;;1.54;100.00;100596.31;5115060;28;19951;-68
2023/04/01 10:27:47;;;;;;;;;;;;;;;1.56;100.00;100604.06;5096482;28;19972;-69
2023/04/01 10:30:31;;;;;;;;;;;;;;;1.62;100.00;100597.53;5090846;28;19934;-70
2023/04/01 10:33:07;;;;;;;;;;;;;;;1.66;100.00;100605.09;5096568;28;19916;-70
2023/04/01 10:35:48;;;;;;;;;;;;;;;1.67;100.00;100603.31;5114693;28;20390;-71
2023/04/01 10:38:17;;;;;;;;;;;;;;;1.78;100.00;100606.84;5114462;28;19919;-71
2023/04/01 10:40:43;;;;;;;;;;;;;;;1.97;100.00;100608.97;5114178;28;19922;-69
2023/04/01 10:43:27;;;;;;;;;;;;;;;2.08;99.31;100605.59;5114078;28;19969;-72
2023/04/01 10:46:02;;;;;;;;;;;;;;;1.85;98.52;100613.34;5096269;28;19916;-70
2023/04/01 10:49:02;;;;;;;;;;;;;;;1.59;98.24;100608.25;5114185;28;20341;-69
2023/04/01 10:51:48;;;;;;;;;;;;;;;1.48;99.80;100609.03;5047017;28;19955;-69
2023/04/01 10:54:18;;;;;;;;;;;;;;;1.68;99.87;100618.94;5100085;28;19919;-71
2023/04/01 10:57:13;;;;;;;;;;;;;;;1.71;98.83;100612.63;5113997;28;19911;-70
2023/04/01 10:59:59;;;;;;;;;;;;;;;1.74;98.46;100617.69;5041700;28;19912;-68
2023/04/01 11:02:27;;;;;;;;;;;;;;;1.62;98.86;100613.28;5082032;28;19912;-71
2023/04/01 11:04:58;;;;;;;;;;;;;;;1.71;97.33;100623.97;5114353;28;20367;-71
2023/04/01 11:07:35;;;;;;;;;;;;;;;1.51;98.28;100617.53;5096032;28;20285;-68
2023/04/01 11:10:04;;;;;;;;;;;;;;;1.48;98.82;100628.25;5114878;28;19912;-69
2023/04/01 11:12:48;;;;;;;;;;;;;;;1.55;97.77;100628.66;5114073;28;20543;-68
2023/04/01 11:15:13;;;;;;;;;;;;;;;1.58;98.46;100623.19;5121406;27;19911;-69
2023/04/01 11:17:38;;;;;;;;;;;;;;;1.66;97.21;100627.88;5124739;27;20231;-69
2023/04/01 11:20:09;;;;;;;;;;;;;;;1.75;97.21;100629.88;5146149;27;19942;-68
2023/04/01 11:22:35;;;;;;;;;;;;;;;1.80;96.28;100631.22;5141536;27;19919;-69
2023/04/01 11:25:03;;;;;;;;;;;;;;;1.85;96.32;100636.97;5145135;27;19923;-70
2023/04/01 11:27:40;;;;;;;;;;;;;;;1.86;95.87;100635.19;5140628;27;19960;-72
2023/04/01 11:30:14;;;;;;;;;;;;;;;1.78;96.54;100634.91;5144954;27;20278;-71
2023/04/01 11:32:58;;;;;;;;;;;;;;;1.82;96.98;100641.59;5145668;27;19919;-71
2023/04/01 11:35:38;;;;;;;;;;;;;;;1.75;96.78;100635.13;5145473;27;19918;-69
2023/04/01 11:38:19;;;;;;;;;;;;;;;1.69;96.62;100640.78;5124906;27;19912;-70
2023/04/01 11:41:05;;;;;;;;;;;;;;;1.57;96.70;100637.25;5135387;27;19915;-70
2023/04/01 11:43:40;;;;;;;;;;;;;;;1.69;96.79;100648.66;5154501;27;19986;-71
2023/04/01 11:46:15;;;;;;;;;;;;;;;1.73;96.55;100639.63;5154469;27;19915;-70
2023/04/01 11:48:40;;;;;;;;;;;;;;;1.83;96.02;100644.13;5154603;27;20056;-70
2023/04/01 11:51:14;;;;;;;;;;;;;;;2.07;96.24;100649.41;5154545;27;19943;-71
2023/04/01 11:53:48;;;;;;;;;;;;;;;2.04;93.73;100657.50;5155736;27;20056;-71
2023/04/01 11:56:16;;;;;;;;;;;;;;;2.00;94.34;100650.78;5156197;27;20031;-71
2023/04/01 11:58:54;;;;;;;;;;;;;;;2.11;93.69;100656.09;5156461;27;20009;-70
2023/04/01 12:01:33;;;;;;;;;;;;;;;2.11;92.56;100650.00;5155728;27;19911;-72
2023/04/01 12:04:08;;;;;;;;;;;;;;;2.20;92.82;100653.75;5154584;27;19911;-67
2023/04/01 12:06:48;;;;;;;;;;;;;;;2.26;91.56;100664.66;5137185;27;19919;-69
2023/04/01 12:09:32;;;;;;;;;;;;;;;2.34;91.62;100658.84;5156408;27;19911;-71
2023/04/01 12:12:01;;;;;;;;;;;;;;;2.40;90.46;100661.88;5119735;27;19911;-70
2023/04/01 12:14:32;;;;;;;;;;;;;;;2.30;88.77;100662.63;5156434;27;20438;-72
2023/04/01 12:17:30;;;;;;;;;;;;;;;2.26;88.69;100667.28;5155888;27;20278;-71
2023/04/01 12:20:15;;;;;;;;;;;;;;;2.33;89.13;100676.41;5101843;27;19918;-71
2023/04/01 12:22:50;;;;;;;;;;;;;;;2.25;88.01;100673.47;5147451;27;19925;-68
2023/04/01 12:25:30;;;;;;;;;;;;;;;2.23;87.35;100674.56;5098194;28;20327;-73
2023/04/01 12:28:10;;;;;;;;;;;;;;;2.10;87.85;100677.22;5133589;27;20378;-68
2023/04/01 12:30:36;;;;;;;;;;;;;;;2.06;86.72;100683.66;5133357;28;19911;-76
2023/04/01 12:33:04;;;;;;;;;;;;;;;2.13;87.89;100672.59;5133364;27;19964;-71
2023/04/01 12:35:47;;;;;;;;;;;;;;;2.12;87.73;100680.59;5143217;27;19925;-68
2023/04/01 12:38:20;;;;;;;;;;;;;;;2.16;88.44;100682.88;5126878;27;20013;-70
2023/04/01 12:40:50;;;;;;;;;;;;;;;2.20;87.30;100688.75;5152366;27;19923;-67
2023/04/01 12:43:18;;;;;;;;;;;;;;;2.12;85.84;100686.69;5154061;27;19919;-74
2023/04/01 12:46:16;;;;;;;;;;;;;;;2.14;86.71;100690.03;5153728;27;19950;-69
2023/04/01 12:48:47;;;;;;;;;;;;;;;2.16;85.85;100689.94;5119214;27;19911;-69
2023/04/01 12:51:19;;;;;;;;;;;;;;;2.35;86.83;100692.06;5154197;27;19961;-73
2023/04/01 12:53:59;;;;;;;;;;;;;;;2.45;87.20;100699.16;5156000;27;19918;-71